Terminal Aerodrome Forecast
Issued by NWS

Home | Current Version | Previous Version | Text Only | Print | Product List | Glossary On
Versions: 1 2 3 4 5 6 7 8 9 10 11 12 13 14 15 16 17
799
FTUS43 KMQT 261120
TAFCMX
TAF
KCMX 261120Z 2612/2712 06007KT 3SM -SHRA BR OVC003
     FM261600 05003KT 2SM BR VCSH OVC008
     FM261900 35004KT 4SM BR VCSH OVC008
     FM270300 29012KT P6SM OVC008
     FM271000 30014KT P6SM BKN020=

USA.gov is the U.S. government's official web portal to all federal, state and local government web resources and services.